createdAt,value
2022-12-09T00:00:10.489Z,3.15
2022-12-09T00:02:39.099Z,3.20
2022-12-09T00:05:08.617Z,4.10
2022-12-09T00:07:37.487Z,4.32
2022-12-09T00:10:07.838Z,6.47
2022-12-09T00:12:36.278Z,3.58
2022-12-09T00:15:05.047Z,5.10
2022-12-09T00:17:34.879Z,3.80
2022-12-09T00:20:03.317Z,4.38
2022-12-09T00:22:32.137Z,3.58
2022-12-09T00:25:00.859Z,4.53
2022-12-09T00:27:29.200Z,4.03
2022-12-09T00:29:57.454Z,4.10
2022-12-09T00:32:25.841Z,5.00
2022-12-09T00:34:55.474Z,8.32
2022-12-09T00:37:23.673Z,7.15
2022-12-09T00:39:51.898Z,19.30
2022-12-09T00:42:20.700Z,9.93
2022-12-09T00:44:49.197Z,13.07
2022-12-09T00:47:17.669Z,8.23
2022-12-09T00:49:45.881Z,7.18
2022-12-09T00:52:16.007Z,6.65
2022-12-09T00:54:44.488Z,6.38
2022-12-09T00:57:14.277Z,5.60
2022-12-09T00:59:42.424Z,6.20
2022-12-09T01:02:10.908Z,5.82
2022-12-09T01:04:39.280Z,4.88
2022-12-09T01:07:07.570Z,4.82
2022-12-09T01:09:38.494Z,5.65
2022-12-09T01:12:06.982Z,4.60
2022-12-09T01:14:35.549Z,3.72
2022-12-09T01:17:03.981Z,3.20
2022-12-09T01:19:32.437Z,4.45
2022-12-09T01:22:01.152Z,4.20
2022-12-09T01:24:29.538Z,3.35
2022-12-09T01:26:59.215Z,3.72
2022-12-09T01:29:27.598Z,5.28
2022-12-09T01:31:56.621Z,8.90
2022-12-09T01:34:24.917Z,8.50
2022-12-09T01:36:53.314Z,7.90
2022-12-09T01:39:21.821Z,11.20
2022-12-09T01:41:51.331Z,10.95
2022-12-09T01:44:23.145Z,8.25
2022-12-09T01:46:55.779Z,8.52
2022-12-09T01:49:28.802Z,8.15
2022-12-09T01:52:05.215Z,8.13
2022-12-09T01:54:34.677Z,12.55
2022-12-09T01:57:03.581Z,15.57
2022-12-09T01:59:33.486Z,11.23
2022-12-09T02:02:03.663Z,12.40
2022-12-09T02:04:36.987Z,13.10
2022-12-09T02:07:09.415Z,19.70
2022-12-09T02:09:38.728Z,18.27
2022-12-09T02:12:16.308Z,15.35
2022-12-09T02:14:54.923Z,15.77
2022-12-09T02:17:28.759Z,19.05
2022-12-09T02:20:05.232Z,13.97
2022-12-09T02:22:38.482Z,18.87
2022-12-09T02:25:16.937Z,23.00
2022-12-09T02:27:51.024Z,23.43
2022-12-09T02:30:23.235Z,17.20
2022-12-09T02:33:12.028Z,17.07
2022-12-09T02:35:46.991Z,16.55
2022-12-09T02:38:18.710Z,18.08
2022-12-09T02:40:52.257Z,15.30
2022-12-09T02:43:25.440Z,20.17
2022-12-09T02:45:56.686Z,19.03
2022-12-09T02:48:29.097Z,15.30
2022-12-09T02:50:59.875Z,16.73
2022-12-09T02:53:29.612Z,13.65
2022-12-09T02:56:01.890Z,18.70
2022-12-09T02:58:30.522Z,16.40
2022-12-09T03:00:59.732Z,19.08
2022-12-09T03:03:31.573Z,14.52
2022-12-09T03:06:07.233Z,16.20
2022-12-09T03:08:43.906Z,16.98
2022-12-09T03:11:15.328Z,18.15
2022-12-09T03:13:53.430Z,15.63
2022-12-09T03:16:28.189Z,15.82
2022-12-09T03:19:01.233Z,17.92
2022-12-09T03:21:34.536Z,16.92
2022-12-09T03:24:03.922Z,16.60
2022-12-09T03:26:34.560Z,17.63
2022-12-09T03:29:08.145Z,15.98
2022-12-09T03:31:39.797Z,21.65
2022-12-09T03:34:15.731Z,18.10
2022-12-09T03:36:49.198Z,16.45
2022-12-09T03:39:20.001Z,19.00
2022-12-09T03:41:54.989Z,16.45
2022-12-09T03:44:27.722Z,18.13
2022-12-09T03:46:56.362Z,18.55
2022-12-09T03:49:24.969Z,13.52
2022-12-09T03:51:58.982Z,21.58
2022-12-09T03:54:32.140Z,18.60
2022-12-09T03:57:01.572Z,17.97
2022-12-09T03:59:34.815Z,21.63
2022-12-09T04:02:04.020Z,16.30
2022-12-09T04:04:32.450Z,17.83
2022-12-09T04:07:02.606Z,19.27
2022-12-09T04:09:31.002Z,21.87
2022-12-09T04:11:59.768Z,20.10
2022-12-09T04:14:28.281Z,16.37
2022-12-09T04:17:00.416Z,17.00
2022-12-09T04:19:29.149Z,17.00
2022-12-09T04:21:57.577Z,17.55
2022-12-09T04:24:27.460Z,15.18
2022-12-09T04:26:55.882Z,14.82
2022-12-09T04:29:24.569Z,16.60
2022-12-09T04:31:58.883Z,17.17
2022-12-09T04:34:30.310Z,15.20
2022-12-09T04:36:58.891Z,14.75
2022-12-09T04:39:28.537Z,12.00
2022-12-09T04:41:56.711Z,15.55
2022-12-09T04:44:25.319Z,16.23
2022-12-09T04:46:53.658Z,16.80
2022-12-09T04:49:22.305Z,18.85
2022-12-09T04:51:50.675Z,16.77
2022-12-09T04:54:19.519Z,15.57
2022-12-09T04:56:50.458Z,35.60
2022-12-09T04:59:18.771Z,24.20
2022-12-09T05:01:47.432Z,10.18
2022-12-09T05:04:16.412Z,46.55
2022-12-09T05:06:44.933Z,18.10
2022-12-09T05:09:14.455Z,17.10
2022-12-09T05:11:43.195Z,40.53
2022-12-09T05:14:13.089Z,8.53
2022-12-09T05:16:41.941Z,23.07
2022-12-09T05:19:11.302Z,16.40
2022-12-09T05:21:40.052Z,60.23
2022-12-09T05:24:08.891Z,12.27
2022-12-09T05:26:37.881Z,21.53
2022-12-09T05:29:06.595Z,13.37
2022-12-09T05:31:37.137Z,16.90
2022-12-09T05:34:08.469Z,14.10
2022-12-09T05:36:37.083Z,13.13
2022-12-09T05:39:06.063Z,14.33
2022-12-09T05:41:34.491Z,14.93
2022-12-09T05:44:06.465Z,19.50
2022-12-09T05:46:36.264Z,16.33
2022-12-09T05:49:05.623Z,16.07
2022-12-09T05:51:34.582Z,13.63
2022-12-09T05:54:05.374Z,16.50
2022-12-09T05:56:34.549Z,16.57
2022-12-09T05:59:03.174Z,18.87
2022-12-09T06:01:31.916Z,16.73
2022-12-09T06:04:02.074Z,15.97
2022-12-09T06:06:32.070Z,19.03
2022-12-09T06:09:02.943Z,16.33
2022-12-09T06:11:32.679Z,23.63
2022-12-09T06:14:01.551Z,16.87
2022-12-09T06:16:29.987Z,22.83
2022-12-09T06:18:58.659Z,17.00
2022-12-09T06:21:28.584Z,14.57
2022-12-09T06:23:57.375Z,15.67
2022-12-09T06:26:28.397Z,17.73
2022-12-09T06:28:57.749Z,15.67
2022-12-09T06:31:26.855Z,21.60
2022-12-09T06:33:58.026Z,20.13
2022-12-09T06:36:30.012Z,19.80
2022-12-09T06:39:07.588Z,25.13
2022-12-09T06:41:42.963Z,22.07
2022-12-09T06:44:19.755Z,21.83
2022-12-09T06:46:50.376Z,37.80
2022-12-09T06:49:19.280Z,32.40
2022-12-09T06:51:49.222Z,38.23
2022-12-09T06:54:18.137Z,29.20
2022-12-09T06:56:46.715Z,36.00
2022-12-09T06:59:15.020Z,57.80
2022-12-09T07:01:45.775Z,39.13
2022-12-09T07:04:15.837Z,62.57
2022-12-09T07:06:46.522Z,47.60
2022-12-09T07:09:19.226Z,30.83
2022-12-09T07:11:48.828Z,35.87
2022-12-09T07:14:19.351Z,21.13
2022-12-09T07:16:48.937Z,24.07
2022-12-09T07:19:19.192Z,17.10
2022-12-09T07:21:48.021Z,23.63
2022-12-09T07:24:19.768Z,23.70
2022-12-09T07:26:49.350Z,27.17
2022-12-09T07:29:18.730Z,28.93
2022-12-09T07:31:50.560Z,27.67
2022-12-09T07:34:19.412Z,41.07
2022-12-09T07:36:48.315Z,32.53
2022-12-09T07:39:19.316Z,43.53
2022-12-09T07:41:48.602Z,46.07
2022-12-09T07:44:17.419Z,21.73
2022-12-09T07:46:46.270Z,51.90
2022-12-09T07:49:15.167Z,25.77
2022-12-09T07:51:44.612Z,27.23
2022-12-09T07:54:13.867Z,25.67
2022-12-09T07:56:44.247Z,21.40
2022-12-09T07:59:16.043Z,20.60
2022-12-09T08:01:44.568Z,25.63
2022-12-09T08:04:13.628Z,28.80
2022-12-09T08:06:42.617Z,21.57
2022-12-09T08:09:14.820Z,22.07
2022-12-09T08:11:44.719Z,20.80
2022-12-09T08:14:14.296Z,45.57
2022-12-09T08:16:44.136Z,28.70
2022-12-09T08:19:13.501Z,26.77
2022-12-09T08:21:42.750Z,28.37
2022-12-09T08:24:13.617Z,32.40
2022-12-09T08:26:42.518Z,25.77
2022-12-09T08:29:16.774Z,34.87
2022-12-09T08:31:45.994Z,35.17
2022-12-09T08:34:15.350Z,46.07
2022-12-09T08:36:45.137Z,30.07
2022-12-09T08:39:14.978Z,63.07
2022-12-09T08:41:45.439Z,41.33
2022-12-09T08:44:17.294Z,58.17
2022-12-09T08:46:47.751Z,44.60
2022-12-09T08:49:20.343Z,60.67
2022-12-09T08:51:50.933Z,91.80
2022-12-09T08:54:20.183Z,131.53
2022-12-09T08:56:51.417Z,43.97
2022-12-09T08:59:21.560Z,40.60
2022-12-09T09:01:50.465Z,59.70
2022-12-09T09:04:21.753Z,42.27
2022-12-09T09:06:51.786Z,37.50
2022-12-09T09:09:22.414Z,39.67
2022-12-09T09:11:51.705Z,38.47
2022-12-09T09:14:22.021Z,36.30
2022-12-09T09:16:50.840Z,28.60
2022-12-09T09:19:21.598Z,34.77
2022-12-09T09:21:50.877Z,29.83
2022-12-09T09:24:22.388Z,35.77
2022-12-09T09:26:54.713Z,32.67
2022-12-09T09:29:25.538Z,25.10
2022-12-09T09:31:55.341Z,29.37
2022-12-09T09:34:25.241Z,27.17
2022-12-09T09:36:54.136Z,33.07
2022-12-09T09:39:23.245Z,34.50
2022-12-09T09:41:57.184Z,34.00
2022-12-09T09:44:33.137Z,41.97
2022-12-09T09:47:13.407Z,36.73
2022-12-09T09:49:47.676Z,39.60
2022-12-09T09:52:19.774Z,39.00
2022-12-09T09:54:49.345Z,39.33
2022-12-09T09:57:22.178Z,35.83
2022-12-09T10:00:09.789Z,35.73
2022-12-09T10:02:59.463Z,37.90
2022-12-09T10:05:31.724Z,38.87
2022-12-09T10:08:15.594Z,29.57
2022-12-09T10:10:57.676Z,33.50
2022-12-09T10:13:37.729Z,31.63
2022-12-09T10:16:17.735Z,33.43
2022-12-09T10:19:05.731Z,29.23
2022-12-09T10:21:41.053Z,31.07
2022-12-09T10:24:20.087Z,31.90
2022-12-09T10:27:04.304Z,29.10
2022-12-09T10:29:46.434Z,29.03
2022-12-09T10:32:19.613Z,24.70
2022-12-09T10:34:48.743Z,54.63
2022-12-09T10:37:30.836Z,26.87
2022-12-09T10:40:22.313Z,17.85
2022-12-09T10:43:10.238Z,19.77
2022-12-09T10:46:16.736Z,22.50
2022-12-09T10:48:38.908Z,24.58
2022-12-09T10:51:14.908Z,21.70
2022-12-09T10:53:48.757Z,19.57
2022-12-09T10:56:23.655Z,19.17
2022-12-09T10:59:14.671Z,17.08
2022-12-09T11:01:51.765Z,16.83
2022-12-09T11:04:27.336Z,13.40
2022-12-09T11:07:00.226Z,17.27
2022-12-09T11:09:31.473Z,18.92
2022-12-09T11:12:01.174Z,18.27
2022-12-09T11:14:35.753Z,12.35
2022-12-09T11:17:15.936Z,9.25
2022-12-09T11:19:48.966Z,13.07
2022-12-09T11:22:30.208Z,9.13
2022-12-09T11:25:21.808Z,6.93
2022-12-09T11:27:53.845Z,9.95
2022-12-09T11:30:25.028Z,12.02
2022-12-09T11:32:59.031Z,13.20
2022-12-09T11:35:37.346Z,6.37
2022-12-09T11:38:18.077Z,9.85
2022-12-09T11:41:02.633Z,8.77
2022-12-09T11:43:38.301Z,12.47
2022-12-09T11:46:23.567Z,11.23
2022-12-09T11:48:57.792Z,11.93
2022-12-09T11:51:30.897Z,11.98
2022-12-09T11:54:03.951Z,17.13
2022-12-09T11:56:33.649Z,10.68
2022-12-09T11:59:06.177Z,10.18
2022-12-09T12:01:46.905Z,9.85
2022-12-09T12:04:17.832Z,12.15
2022-12-09T12:06:49.716Z,11.85
2022-12-09T12:09:23.699Z,9.77
2022-12-09T12:12:03.731Z,17.77
2022-12-09T12:14:32.405Z,5.78
2022-12-09T12:17:09.665Z,6.35
2022-12-09T12:19:40.794Z,5.50
2022-12-09T12:22:39.039Z,6.13
2022-12-09T12:25:26.075Z,6.73
2022-12-09T12:28:42.189Z,7.47
2022-12-09T12:31:23.162Z,12.32
2022-12-09T12:34:23.428Z,12.57
2022-12-09T12:37:01.638Z,12.65
2022-12-09T12:39:43.597Z,10.40
2022-12-09T12:42:22.349Z,13.15
2022-12-09T12:45:15.837Z,11.23
2022-12-09T12:47:48.081Z,6.65
2022-12-09T12:50:52.116Z,4.70
2022-12-09T12:53:32.248Z,5.72
2022-12-09T12:56:07.912Z,7.85
2022-12-09T12:58:52.569Z,8.63
2022-12-09T13:01:30.162Z,7.30
2022-12-09T13:04:16.882Z,10.23
2022-12-09T13:06:52.389Z,7.23
2022-12-09T13:09:27.352Z,7.00
2022-12-09T13:12:13.648Z,6.57
2022-12-09T13:14:53.694Z,6.72
2022-12-09T13:17:27.981Z,6.47
2022-12-09T13:19:59.519Z,8.07
2022-12-09T13:22:46.408Z,7.72
2022-12-09T13:25:22.294Z,5.70
2022-12-09T13:27:57.165Z,5.53
2022-12-09T13:30:33.931Z,7.40
2022-12-09T13:33:30.000Z,3.80
2022-12-09T13:36:06.431Z,5.37
2022-12-09T13:38:39.780Z,5.37
2022-12-09T13:42:02.413Z,7.27
2022-12-09T13:44:36.862Z,7.00
2022-12-09T13:47:28.953Z,9.07
2022-12-09T13:50:02.432Z,19.73
2022-12-09T13:52:50.481Z,12.03
2022-12-09T13:55:36.678Z,10.98
2022-12-09T13:58:30.880Z,8.85
2022-12-09T14:01:10.105Z,8.32
2022-12-09T14:03:47.758Z,8.98
2022-12-09T14:06:24.196Z,9.57
2022-12-09T14:08:55.775Z,9.23
2022-12-09T14:11:48.255Z,7.80
2022-12-09T14:14:39.591Z,9.20
2022-12-09T14:17:41.424Z,6.65
2022-12-09T14:20:21.288Z,6.50
2022-12-09T14:23:22.561Z,9.57
2022-12-09T14:26:05.801Z,6.85
2022-12-09T14:28:53.492Z,7.50
2022-12-09T14:31:44.917Z,7.07
2022-12-09T14:34:38.146Z,8.45
2022-12-09T14:37:35.523Z,8.10
2022-12-09T14:41:05.182Z,7.90
2022-12-09T14:44:29.558Z,7.38
2022-12-09T14:47:16.081Z,7.40
2022-12-09T14:49:49.437Z,9.70
2022-12-09T14:52:24.443Z,11.00
2022-12-09T14:54:54.498Z,12.82
2022-12-09T14:57:25.708Z,10.32
2022-12-09T14:59:56.234Z,11.55
2022-12-09T15:02:26.627Z,10.55
2022-12-09T15:04:59.857Z,9.00
2022-12-09T15:07:29.974Z,10.95
2022-12-09T15:09:59.886Z,10.32
2022-12-09T15:12:32.176Z,10.98
2022-12-09T15:15:06.399Z,9.13
2022-12-09T15:17:42.065Z,9.30
2022-12-09T15:20:23.973Z,9.38
2022-12-09T15:22:53.123Z,10.32
2022-12-09T15:25:22.956Z,8.80
2022-12-09T15:27:59.386Z,10.02
2022-12-09T15:30:32.110Z,9.80
2022-12-09T15:33:00.359Z,8.90
2022-12-09T15:35:32.898Z,9.43
2022-12-09T15:38:04.108Z,9.00
2022-12-09T15:40:35.092Z,11.13
2022-12-09T15:43:07.106Z,9.15
2022-12-09T15:45:38.033Z,10.45
2022-12-09T15:48:13.517Z,8.15
2022-12-09T15:50:49.104Z,8.80
2022-12-09T15:53:23.120Z,9.48
2022-12-09T15:55:55.038Z,9.57
2022-12-09T15:58:25.826Z,11.07
2022-12-09T16:00:55.241Z,9.93
2022-12-09T16:03:27.796Z,10.43
2022-12-09T16:05:59.965Z,9.20
2022-12-09T16:08:36.165Z,10.05
2022-12-09T16:11:05.177Z,10.10
2022-12-09T16:13:33.602Z,11.60
2022-12-09T16:16:03.267Z,9.82
2022-12-09T16:18:35.691Z,10.48
2022-12-09T16:21:26.844Z,10.57
2022-12-09T16:23:57.145Z,10.55
2022-12-09T16:26:30.630Z,11.32
2022-12-09T16:29:01.973Z,9.43
2022-12-09T16:31:30.856Z,10.15
2022-12-09T16:33:59.317Z,12.85
2022-12-09T16:36:31.412Z,12.05
2022-12-09T16:39:33.881Z,13.15
2022-12-09T16:42:03.372Z,13.57
2022-12-09T16:44:34.669Z,13.43
2022-12-09T16:47:16.071Z,13.18
2022-12-09T16:49:47.067Z,11.90
2022-12-09T16:52:18.400Z,10.88
2022-12-09T16:54:48.025Z,11.38
2022-12-09T16:57:17.887Z,11.73
2022-12-09T16:59:46.606Z,13.10
2022-12-09T17:02:20.709Z,13.88
2022-12-09T17:04:50.202Z,12.77
2022-12-09T17:07:19.730Z,11.98
2022-12-09T17:09:47.940Z,15.80
2022-12-09T17:12:16.481Z,11.82
2022-12-09T17:14:44.977Z,12.38
2022-12-09T17:17:13.146Z,12.48
2022-12-09T17:19:42.206Z,11.70
2022-12-09T17:22:10.759Z,11.32
2022-12-09T17:24:40.976Z,13.43
2022-12-09T17:27:09.213Z,15.63
2022-12-09T17:29:37.908Z,15.20
2022-12-09T17:32:06.761Z,23.25
2022-12-09T17:34:35.087Z,18.75
2022-12-09T17:37:03.586Z,15.55
2022-12-09T17:39:32.634Z,17.67
2022-12-09T17:42:02.291Z,15.65
2022-12-09T17:44:30.591Z,16.27
2022-12-09T17:46:58.693Z,16.10
2022-12-09T17:49:27.119Z,17.52
2022-12-09T17:51:55.262Z,17.95
2022-12-09T17:54:24.711Z,17.10
2022-12-09T17:56:52.904Z,16.92
2022-12-09T17:59:22.418Z,13.80
2022-12-09T18:01:50.585Z,14.05
2022-12-09T18:04:18.884Z,13.57
2022-12-09T18:06:47.741Z,14.27
2022-12-09T18:09:18.907Z,15.18
2022-12-09T18:11:47.533Z,12.63
2022-12-09T18:14:16.704Z,14.50
2022-12-09T18:16:49.004Z,13.52
2022-12-09T18:19:20.647Z,14.25
2022-12-09T18:21:48.917Z,14.88
2022-12-09T18:24:17.101Z,13.02
2022-12-09T18:26:45.742Z,12.23
2022-12-09T18:29:14.849Z,12.55
2022-12-09T18:31:45.592Z,14.07
2022-12-09T18:34:15.314Z,15.30
2022-12-09T18:36:43.573Z,15.73
2022-12-09T18:39:11.827Z,18.25
2022-12-09T18:41:40.021Z,13.98
2022-12-09T18:44:09.885Z,15.15
2022-12-09T18:46:40.470Z,13.75
2022-12-09T18:49:11.597Z,13.73
2022-12-09T18:51:42.760Z,13.63
2022-12-09T18:54:15.451Z,13.23
2022-12-09T18:56:43.699Z,12.68
2022-12-09T18:59:12.275Z,14.68
2022-12-09T19:01:42.495Z,12.73
2022-12-09T19:04:14.208Z,12.93
2022-12-09T19:06:45.293Z,13.52
2022-12-09T19:09:16.427Z,12.85
2022-12-09T19:11:46.150Z,16.23
2022-12-09T19:14:15.173Z,15.43
2022-12-09T19:16:44.237Z,15.25
2022-12-09T19:19:14.493Z,14.13
2022-12-09T19:21:44.217Z,16.70
2022-12-09T19:24:15.826Z,12.95
2022-12-09T19:26:44.834Z,14.90
2022-12-09T19:29:14.435Z,13.45
2022-12-09T19:31:44.482Z,15.35
2022-12-09T19:34:15.395Z,15.50
2022-12-09T19:36:46.252Z,15.35
2022-12-09T19:39:15.730Z,15.65
2022-12-09T19:41:45.405Z,13.88
2022-12-09T19:44:21.563Z,15.05
2022-12-09T19:46:59.612Z,15.23
2022-12-09T19:49:28.441Z,15.07
2022-12-09T19:51:58.223Z,15.45
2022-12-09T19:54:28.708Z,15.48
2022-12-09T19:56:58.545Z,18.65
2022-12-09T19:59:27.619Z,17.83
2022-12-09T20:01:56.331Z,18.27
2022-12-09T20:07:18.144Z,16.98
2022-12-09T20:09:46.400Z,16.83
2022-12-09T20:12:15.312Z,18.42
2022-12-09T20:14:44.167Z,17.02
2022-12-09T20:17:12.408Z,15.65
2022-12-09T20:19:40.726Z,13.73
2022-12-09T20:22:09.107Z,16.13
2022-12-09T20:24:38.918Z,14.90
2022-12-09T20:27:07.091Z,14.70
2022-12-09T20:29:37.855Z,17.25
2022-12-09T20:32:07.628Z,19.73
2022-12-09T20:34:36.959Z,15.65
2022-12-09T20:37:05.639Z,17.38
2022-12-09T20:39:34.083Z,18.15
2022-12-09T20:42:03.579Z,17.33
2022-12-09T20:44:32.598Z,16.15
2022-12-09T20:47:00.791Z,16.23
2022-12-09T20:49:29.863Z,17.77
2022-12-09T20:51:58.509Z,18.48
2022-12-09T20:54:26.845Z,18.23
2022-12-09T20:56:55.245Z,18.92
2022-12-09T20:59:25.275Z,19.80
2022-12-09T21:01:54.284Z,20.70
2022-12-09T21:04:22.824Z,20.98
2022-12-09T21:06:51.165Z,21.67
2022-12-09T21:09:22.497Z,21.23
2022-12-09T21:11:51.250Z,21.75
2022-12-09T21:14:20.184Z,17.67
2022-12-09T21:16:51.393Z,17.80
2022-12-09T21:19:24.391Z,17.27
2022-12-09T21:21:53.875Z,14.68
2022-12-09T21:24:23.943Z,15.02
2022-12-09T21:26:55.323Z,15.95
2022-12-09T21:29:29.924Z,13.90
2022-12-09T21:32:01.544Z,15.77
2022-12-09T21:34:29.832Z,14.95
2022-12-09T21:36:58.025Z,14.43
2022-12-09T21:39:26.453Z,15.20
2022-12-09T21:41:55.222Z,17.05
2022-12-09T21:44:25.377Z,16.55
2022-12-09T21:46:54.888Z,16.42
2022-12-09T21:49:24.650Z,16.65
2022-12-09T21:51:53.171Z,16.80
2022-12-09T21:54:21.335Z,14.88
2022-12-09T21:56:49.642Z,16.13
2022-12-09T21:59:17.784Z,17.67
2022-12-09T22:01:46.096Z,14.25
2022-12-09T22:04:16.370Z,16.40
2022-12-09T22:06:48.319Z,16.25
2022-12-09T22:09:17.910Z,16.30
2022-12-09T22:11:46.395Z,17.13
2022-12-09T22:14:14.591Z,16.00
2022-12-09T22:16:45.654Z,15.45
2022-12-09T22:19:16.843Z,16.40
2022-12-09T22:21:46.460Z,15.48
2022-12-09T22:24:15.285Z,16.65
2022-12-09T22:26:44.413Z,16.40
2022-12-09T22:29:14.322Z,18.65
2022-12-09T22:31:43.942Z,16.30
2022-12-09T22:34:13.488Z,18.27
2022-12-09T22:36:42.359Z,20.33
2022-12-09T22:39:14.302Z,17.53
2022-12-09T22:41:43.745Z,16.88
2022-12-09T22:44:13.590Z,19.80
2022-12-09T22:46:42.728Z,17.80
2022-12-09T22:49:13.755Z,16.97
2022-12-09T22:51:42.653Z,17.60
2022-12-09T22:54:13.433Z,16.25
2022-12-09T22:56:43.974Z,15.95
2022-12-09T22:59:13.800Z,15.98
2022-12-09T23:01:45.533Z,16.15
2022-12-09T23:04:15.428Z,21.25
2022-12-09T23:06:44.090Z,21.43
2022-12-09T23:09:18.390Z,18.38
2022-12-09T23:11:47.386Z,20.40
2022-12-09T23:14:16.303Z,19.57
2022-12-09T23:16:45.413Z,18.40
2022-12-09T23:19:14.482Z,22.33
2022-12-09T23:21:44.139Z,22.13
2022-12-09T23:24:20.990Z,20.30
2022-12-09T23:26:50.756Z,20.23
2022-12-09T23:29:19.342Z,21.38
2022-12-09T23:31:47.845Z,20.95
2022-12-09T23:34:16.816Z,20.08
2022-12-09T23:36:45.950Z,20.38
2022-12-09T23:39:19.270Z,22.15
2022-12-09T23:41:47.824Z,20.60
2022-12-09T23:44:19.067Z,20.48
2022-12-09T23:46:48.028Z,21.60
2022-12-09T23:49:16.274Z,21.13
2022-12-09T23:51:44.941Z,19.90
2022-12-09T23:54:15.440Z,22.73
2022-12-09T23:56:48.084Z,20.37
2022-12-09T23:59:19.488Z,21.65
